Terminal Aerodrome Forecast
Issued by NWS

Home | Current Version | Previous Version | Graphics & Text | Print | Product List | Glossary On
Versions: 1 2 3 4 5 6 7 8 9 10 11 12
000
FTUS43 KMPX 150524
TAFAXN
TAF
KAXN 150524Z 1506/1606 28009KT P6SM OVC100
     FM150800 30011KT P6SM SCT015 OVC050
      TEMPO 1509/1510 OVC015
     FM151000 32012G18KT 6SM -SN SCT006 OVC010
     FM152100 34016G24KT P6SM -SN BKN020
     FM160000 33018G24KT P6SM BKN050=

USA.gov is the U.S. government's official web portal to all federal, state and local government web resources and services.